sensor_id;sensor_type;location;lat;lon;timestamp;temperature;humidity
20957;DHT22;10637;47.970;7.830;2023-05-10T00:02:26;13.80;99.90
20957;DHT22;10637;47.970;7.830;2023-05-10T00:07:28;13.70;99.90
20957;DHT22;10637;47.970;7.830;2023-05-10T00:12:30;13.70;99.90
20957;DHT22;10637;47.970;7.830;2023-05-10T00:17:32;13.70;99.90
20957;DHT22;10637;47.970;7.830;2023-05-10T00:22:34;13.60;99.90
20957;DHT22;10637;47.970;7.830;2023-05-10T00:27:35;13.70;99.90
20957;DHT22;10637;47.970;7.830;2023-05-10T00:32:37;13.60;99.90
20957;DHT22;10637;47.970;7.830;2023-05-10T00:37:39;13.60;99.90
20957;DHT22;10637;47.970;7.830;2023-05-10T00:42:41;13.60;99.90
20957;DHT22;10637;47.970;7.830;2023-05-10T00:47:43;13.50;99.90
20957;DHT22;10637;47.970;7.830;2023-05-10T00:52:45;13.50;99.90
20957;DHT22;10637;47.970;7.830;2023-05-10T00:57:47;13.50;99.90
20957;DHT22;10637;47.970;7.830;2023-05-10T01:02:49;13.50;99.90
20957;DHT22;10637;47.970;7.830;2023-05-10T01:07:51;13.50;99.90
20957;DHT22;10637;47.970;7.830;2023-05-10T01:12:53;13.40;99.90
20957;DHT22;10637;47.970;7.830;2023-05-10T01:17:56;13.40;99.90
20957;DHT22;10637;47.970;7.830;2023-05-10T01:23:04;13.40;99.90
20957;DHT22;10637;47.970;7.830;2023-05-10T01:34:07;13.50;99.90
20957;DHT22;10637;47.970;7.830;2023-05-10T01:39:24;13.50;99.90
20957;DHT22;10637;47.970;7.830;2023-05-10T01:44:56;13.50;99.90
20957;DHT22;10637;47.970;7.830;2023-05-10T01:50:02;13.50;99.90
20957;DHT22;10637;47.970;7.830;2023-05-10T01:55:07;13.50;99.90
20957;DHT22;10637;47.970;7.830;2023-05-10T02:00:10;13.50;99.90
20957;DHT22;10637;47.970;7.830;2023-05-10T02:05:15;13.50;99.90
20957;DHT22;10637;47.970;7.830;2023-05-10T02:10:18;13.50;99.90
20957;DHT22;10637;47.970;7.830;2023-05-10T02:15:23;13.50;99.90
20957;DHT22;10637;47.970;7.830;2023-05-10T02:20:26;13.40;99.90
20957;DHT22;10637;47.970;7.830;2023-05-10T02:25:28;13.50;99.90
20957;DHT22;10637;47.970;7.830;2023-05-10T02:30:33;13.40;99.90
20957;DHT22;10637;47.970;7.830;2023-05-10T02:35:36;13.50;99.90
20957;DHT22;10637;47.970;7.830;2023-05-10T02:40:41;13.40;99.90
20957;DHT22;10637;47.970;7.830;2023-05-10T02:45:43;13.40;99.90
20957;DHT22;10637;47.970;7.830;2023-05-10T02:50:50;13.40;99.90
20957;DHT22;10637;47.970;7.830;2023-05-10T02:55:58;13.40;99.90
20957;DHT22;10637;47.970;7.830;2023-05-10T03:01:01;13.40;99.90
20957;DHT22;10637;47.970;7.830;2023-05-10T03:06:03;13.30;99.90
20957;DHT22;10637;47.970;7.830;2023-05-10T03:16:44;13.20;99.90
20957;DHT22;10637;47.970;7.830;2023-05-10T03:21:50;13.30;99.90
20957;DHT22;10637;47.970;7.830;2023-05-10T03:26:56;13.30;99.90
20957;DHT22;10637;47.970;7.830;2023-05-10T03:32:00;13.20;99.90
20957;DHT22;10637;47.970;7.830;2023-05-10T03:37:02;13.20;99.90
20957;DHT22;10637;47.970;7.830;2023-05-10T03:42:03;13.10;99.90
20957;DHT22;10637;47.970;7.830;2023-05-10T03:47:05;13.20;99.90
20957;DHT22;10637;47.970;7.830;2023-05-10T03:52:07;13.20;99.90
20957;DHT22;10637;47.970;7.830;2023-05-10T03:57:09;13.10;99.90
20957;DHT22;10637;47.970;7.830;2023-05-10T04:02:11;13.10;99.90
20957;DHT22;10637;47.970;7.830;2023-05-10T04:07:12;13.00;99.90
20957;DHT22;10637;47.970;7.830;2023-05-10T04:12:14;13.00;99.90
20957;DHT22;10637;47.970;7.830;2023-05-10T04:17:16;12.90;99.90
20957;DHT22;10637;47.970;7.830;2023-05-10T04:22:18;12.90;99.90
20957;DHT22;10637;47.970;7.830;2023-05-10T04:27:19;12.90;99.90
20957;DHT22;10637;47.970;7.830;2023-05-10T04:32:21;12.90;99.90
20957;DHT22;10637;47.970;7.830;2023-05-10T04:37:23;13.00;99.90
20957;DHT22;10637;47.970;7.830;2023-05-10T04:42:25;13.00;99.90
20957;DHT22;10637;47.970;7.830;2023-05-10T04:47:26;13.00;99.90
20957;DHT22;10637;47.970;7.830;2023-05-10T04:52:28;13.00;99.90
20957;DHT22;10637;47.970;7.830;2023-05-10T04:57:30;12.90;99.90
20957;DHT22;10637;47.970;7.830;2023-05-10T05:02:32;12.90;99.90
20957;DHT22;10637;47.970;7.830;2023-05-10T05:07:33;13.00;99.90
20957;DHT22;10637;47.970;7.830;2023-05-10T05:12:35;13.00;99.90
20957;DHT22;10637;47.970;7.830;2023-05-10T05:17:37;13.10;99.90
20957;DHT22;10637;47.970;7.830;2023-05-10T05:22:39;13.10;99.90
20957;DHT22;10637;47.970;7.830;2023-05-10T05:27:40;13.10;99.90
20957;DHT22;10637;47.970;7.830;2023-05-10T05:32:42;13.10;99.90
20957;DHT22;10637;47.970;7.830;2023-05-10T05:37:44;13.20;99.90
20957;DHT22;10637;47.970;7.830;2023-05-10T05:42:46;13.30;99.90
20957;DHT22;10637;47.970;7.830;2023-05-10T05:47:47;13.20;99.90
20957;DHT22;10637;47.970;7.830;2023-05-10T05:52:49;13.20;99.90
20957;DHT22;10637;47.970;7.830;2023-05-10T05:57:52;13.10;99.90
20957;DHT22;10637;47.970;7.830;2023-05-10T06:02:55;13.00;99.90
20957;DHT22;10637;47.970;7.830;2023-05-10T06:07:57;13.00;99.90
20957;DHT22;10637;47.970;7.830;2023-05-10T06:13:00;12.90;99.90
20957;DHT22;10637;47.970;7.830;2023-05-10T06:18:02;12.90;99.90
20957;DHT22;10637;47.970;7.830;2023-05-10T06:23:04;12.90;99.90
20957;DHT22;10637;47.970;7.830;2023-05-10T06:28:06;12.90;99.90
20957;DHT22;10637;47.970;7.830;2023-05-10T06:33:07;12.80;99.90
20957;DHT22;10637;47.970;7.830;2023-05-10T06:38:09;12.80;99.90
20957;DHT22;10637;47.970;7.830;2023-05-10T06:43:11;12.90;99.90
20957;DHT22;10637;47.970;7.830;2023-05-10T06:48:13;13.10;99.90
20957;DHT22;10637;47.970;7.830;2023-05-10T06:53:15;13.20;99.90
20957;DHT22;10637;47.970;7.830;2023-05-10T06:58:16;13.20;99.90
20957;DHT22;10637;47.970;7.830;2023-05-10T07:03:18;13.10;99.90
20957;DHT22;10637;47.970;7.830;2023-05-10T07:08:20;13.10;99.90
20957;DHT22;10637;47.970;7.830;2023-05-10T07:13:22;13.20;99.90
20957;DHT22;10637;47.970;7.830;2023-05-10T07:18:24;13.30;99.90
20957;DHT22;10637;47.970;7.830;2023-05-10T07:23:26;13.40;99.90
20957;DHT22;10637;47.970;7.830;2023-05-10T07:28:27;13.40;99.90
20957;DHT22;10637;47.970;7.830;2023-05-10T07:33:29;13.30;99.90
20957;DHT22;10637;47.970;7.830;2023-05-10T07:38:31;13.40;99.90
20957;DHT22;10637;47.970;7.830;2023-05-10T07:43:33;13.40;99.90
20957;DHT22;10637;47.970;7.830;2023-05-10T07:48:34;13.60;99.90
20957;DHT22;10637;47.970;7.830;2023-05-10T07:53:37;13.50;99.90
20957;DHT22;10637;47.970;7.830;2023-05-10T07:58:38;13.80;99.90
20957;DHT22;10637;47.970;7.830;2023-05-10T08:03:40;14.00;99.90
20957;DHT22;10637;47.970;7.830;2023-05-10T08:08:42;14.10;99.90
20957;DHT22;10637;47.970;7.830;2023-05-10T08:13:48;14.20;99.90
20957;DHT22;10637;47.970;7.830;2023-05-10T08:18:50;14.40;99.90
20957;DHT22;10637;47.970;7.830;2023-05-10T08:23:52;14.60;99.90
20957;DHT22;10637;47.970;7.830;2023-05-10T08:28:54;14.60;99.90
20957;DHT22;10637;47.970;7.830;2023-05-10T08:33:56;14.90;99.90
20957;DHT22;10637;47.970;7.830;2023-05-10T08:38:58;15.00;99.90
20957;DHT22;10637;47.970;7.830;2023-05-10T08:44:03;15.10;99.90
20957;DHT22;10637;47.970;7.830;2023-05-10T08:49:07;15.10;99.90
20957;DHT22;10637;47.970;7.830;2023-05-10T08:54:11;15.20;99.90
20957;DHT22;10637;47.970;7.830;2023-05-10T08:59:14;15.50;99.90
20957;DHT22;10637;47.970;7.830;2023-05-10T09:04:16;15.50;99.90
20957;DHT22;10637;47.970;7.830;2023-05-10T09:09:19;15.40;99.90
20957;DHT22;10637;47.970;7.830;2023-05-10T09:14:23;15.50;99.90
20957;DHT22;10637;47.970;7.830;2023-05-10T09:19:25;16.00;99.90
20957;DHT22;10637;47.970;7.830;2023-05-10T09:24:26;15.40;99.90
20957;DHT22;10637;47.970;7.830;2023-05-10T09:29:42;15.20;99.90
20957;DHT22;10637;47.970;7.830;2023-05-10T09:34:44;15.50;99.90
20957;DHT22;10637;47.970;7.830;2023-05-10T09:39:46;15.50;99.90
20957;DHT22;10637;47.970;7.830;2023-05-10T09:44:48;15.70;99.90
20957;DHT22;10637;47.970;7.830;2023-05-10T09:49:50;16.00;99.90
20957;DHT22;10637;47.970;7.830;2023-05-10T09:54:57;16.50;99.90
20957;DHT22;10637;47.970;7.830;2023-05-10T10:00:00;16.90;99.90
20957;DHT22;10637;47.970;7.830;2023-05-10T10:05:02;17.10;99.90
20957;DHT22;10637;47.970;7.830;2023-05-10T10:10:05;16.50;99.90
20957;DHT22;10637;47.970;7.830;2023-05-10T10:15:13;16.90;99.90
20957;DHT22;10637;47.970;7.830;2023-05-10T10:20:18;17.10;99.90
20957;DHT22;10637;47.970;7.830;2023-05-10T10:25:21;16.70;99.90
20957;DHT22;10637;47.970;7.830;2023-05-10T10:30:31;16.60;99.90
20957;DHT22;10637;47.970;7.830;2023-05-10T10:35:37;16.70;99.90
20957;DHT22;10637;47.970;7.830;2023-05-10T10:40:39;16.70;99.90
20957;DHT22;10637;47.970;7.830;2023-05-10T10:45:41;17.20;99.90
20957;DHT22;10637;47.970;7.830;2023-05-10T10:50:44;17.70;99.90
20957;DHT22;10637;47.970;7.830;2023-05-10T10:55:48;17.70;99.90
20957;DHT22;10637;47.970;7.830;2023-05-10T11:00:50;17.80;99.90
20957;DHT22;10637;47.970;7.830;2023-05-10T11:05:57;17.90;99.90
20957;DHT22;10637;47.970;7.830;2023-05-10T11:21:18;17.50;99.90
20957;DHT22;10637;47.970;7.830;2023-05-10T11:26:20;17.30;99.90
20957;DHT22;10637;47.970;7.830;2023-05-10T11:31:24;17.40;99.90
20957;DHT22;10637;47.970;7.830;2023-05-10T11:36:32;17.40;99.90
20957;DHT22;10637;47.970;7.830;2023-05-10T11:41:34;17.20;99.90
20957;DHT22;10637;47.970;7.830;2023-05-10T11:46:36;17.20;99.90
20957;DHT22;10637;47.970;7.830;2023-05-10T11:51:38;18.20;99.90
20957;DHT22;10637;47.970;7.830;2023-05-10T11:56:41;17.50;99.90
20957;DHT22;10637;47.970;7.830;2023-05-10T12:01:42;17.10;99.90
20957;DHT22;10637;47.970;7.830;2023-05-10T12:06:44;17.20;99.90
20957;DHT22;10637;47.970;7.830;2023-05-10T12:11:48;17.50;99.90
20957;DHT22;10637;47.970;7.830;2023-05-10T12:16:50;18.00;99.90
20957;DHT22;10637;47.970;7.830;2023-05-10T12:21:52;17.50;99.90
20957;DHT22;10637;47.970;7.830;2023-05-10T12:26:54;17.50;99.90
20957;DHT22;10637;47.970;7.830;2023-05-10T12:31:57;17.00;99.90
20957;DHT22;10637;47.970;7.830;2023-05-10T12:37:00;16.70;99.90
20957;DHT22;10637;47.970;7.830;2023-05-10T12:42:02;16.20;99.90
20957;DHT22;10637;47.970;7.830;2023-05-10T12:47:04;15.60;99.90
20957;DHT22;10637;47.970;7.830;2023-05-10T12:52:05;15.80;99.90
20957;DHT22;10637;47.970;7.830;2023-05-10T12:57:07;16.40;99.90
20957;DHT22;10637;47.970;7.830;2023-05-10T13:02:09;16.80;99.90
20957;DHT22;10637;47.970;7.830;2023-05-10T13:07:11;16.80;99.90
20957;DHT22;10637;47.970;7.830;2023-05-10T13:12:13;16.50;99.90
20957;DHT22;10637;47.970;7.830;2023-05-10T13:17:15;16.20;99.90
20957;DHT22;10637;47.970;7.830;2023-05-10T13:22:16;16.30;99.90
20957;DHT22;10637;47.970;7.830;2023-05-10T13:27:33;16.40;99.90
20957;DHT22;10637;47.970;7.830;2023-05-10T13:32:35;16.40;99.90
20957;DHT22;10637;47.970;7.830;2023-05-10T13:37:37;16.60;99.90
20957;DHT22;10637;47.970;7.830;2023-05-10T13:42:39;16.80;99.90
20957;DHT22;10637;47.970;7.830;2023-05-10T13:47:41;16.90;99.90
20957;DHT22;10637;47.970;7.830;2023-05-10T13:52:42;17.10;99.90
20957;DHT22;10637;47.970;7.830;2023-05-10T13:57:44;17.20;99.90
20957;DHT22;10637;47.970;7.830;2023-05-10T14:02:46;16.80;99.90
20957;DHT22;10637;47.970;7.830;2023-05-10T14:07:48;16.90;99.90
20957;DHT22;10637;47.970;7.830;2023-05-10T14:12:50;16.80;99.90
20957;DHT22;10637;47.970;7.830;2023-05-10T14:17:52;16.90;99.90
20957;DHT22;10637;47.970;7.830;2023-05-10T14:22:54;17.20;99.90
20957;DHT22;10637;47.970;7.830;2023-05-10T14:27:55;16.80;99.90
20957;DHT22;10637;47.970;7.830;2023-05-10T14:32:57;16.50;99.90
20957;DHT22;10637;47.970;7.830;2023-05-10T14:38:00;16.40;99.90
20957;DHT22;10637;47.970;7.830;2023-05-10T14:43:01;16.40;99.90
20957;DHT22;10637;47.970;7.830;2023-05-10T14:48:03;16.20;99.90
20957;DHT22;10637;47.970;7.830;2023-05-10T14:53:06;16.20;99.90
20957;DHT22;10637;47.970;7.830;2023-05-10T14:58:08;16.10;99.90
20957;DHT22;10637;47.970;7.830;2023-05-10T15:03:09;16.50;99.90
20957;DHT22;10637;47.970;7.830;2023-05-10T15:08:12;16.50;99.90
20957;DHT22;10637;47.970;7.830;2023-05-10T15:13:14;16.80;99.90
20957;DHT22;10637;47.970;7.830;2023-05-10T15:18:15;16.70;99.90
20957;DHT22;10637;47.970;7.830;2023-05-10T15:23:19;16.80;99.90
20957;DHT22;10637;47.970;7.830;2023-05-10T15:28:21;16.80;99.90
20957;DHT22;10637;47.970;7.830;2023-05-10T15:33:23;17.20;99.90
20957;DHT22;10637;47.970;7.830;2023-05-10T15:38:26;17.30;99.90
20957;DHT22;10637;47.970;7.830;2023-05-10T15:43:27;17.40;99.90
20957;DHT22;10637;47.970;7.830;2023-05-10T15:48:29;17.90;99.90
20957;DHT22;10637;47.970;7.830;2023-05-10T15:53:32;17.60;99.90
20957;DHT22;10637;47.970;7.830;2023-05-10T15:58:34;17.50;99.90
20957;DHT22;10637;47.970;7.830;2023-05-10T16:03:36;17.10;99.90
20957;DHT22;10637;47.970;7.830;2023-05-10T16:08:38;16.90;99.90
20957;DHT22;10637;47.970;7.830;2023-05-10T16:13:39;16.70;99.90
20957;DHT22;10637;47.970;7.830;2023-05-10T16:18:41;16.30;99.90
20957;DHT22;10637;47.970;7.830;2023-05-10T16:23:44;16.10;99.90
20957;DHT22;10637;47.970;7.830;2023-05-10T16:28:47;16.20;99.90
20957;DHT22;10637;47.970;7.830;2023-05-10T16:33:49;16.40;99.90
20957;DHT22;10637;47.970;7.830;2023-05-10T16:38:51;16.30;99.90
20957;DHT22;10637;47.970;7.830;2023-05-10T16:43:53;16.30;99.90
20957;DHT22;10637;47.970;7.830;2023-05-10T16:48:55;16.40;99.90
20957;DHT22;10637;47.970;7.830;2023-05-10T16:53:57;16.30;99.90
20957;DHT22;10637;47.970;7.830;2023-05-10T16:58:59;16.40;99.90
20957;DHT22;10637;47.970;7.830;2023-05-10T17:04:01;16.50;99.90
20957;DHT22;10637;47.970;7.830;2023-05-10T17:09:03;16.10;99.90
20957;DHT22;10637;47.970;7.830;2023-05-10T17:14:06;16.10;99.90
20957;DHT22;10637;47.970;7.830;2023-05-10T17:19:08;16.00;99.90
20957;DHT22;10637;47.970;7.830;2023-05-10T17:24:10;16.30;99.90
20957;DHT22;10637;47.970;7.830;2023-05-10T17:29:12;16.10;99.90
20957;DHT22;10637;47.970;7.830;2023-05-10T17:34:14;16.00;99.90
20957;DHT22;10637;47.970;7.830;2023-05-10T17:39:16;15.90;99.90
20957;DHT22;10637;47.970;7.830;2023-05-10T17:44:18;16.00;99.90
20957;DHT22;10637;47.970;7.830;2023-05-10T17:49:19;15.90;99.90
20957;DHT22;10637;47.970;7.830;2023-05-10T17:54:21;15.80;99.90
20957;DHT22;10637;47.970;7.830;2023-05-10T17:59:23;15.80;99.90
20957;DHT22;10637;47.970;7.830;2023-05-10T18:04:25;15.70;99.90
20957;DHT22;10637;47.970;7.830;2023-05-10T18:09:27;15.70;99.90
20957;DHT22;10637;47.970;7.830;2023-05-10T18:14:29;15.50;99.90
20957;DHT22;10637;47.970;7.830;2023-05-10T18:19:41;15.40;99.90
20957;DHT22;10637;47.970;7.830;2023-05-10T18:24:43;15.10;99.90
20957;DHT22;10637;47.970;7.830;2023-05-10T18:29:45;15.10;99.90
20957;DHT22;10637;47.970;7.830;2023-05-10T18:34:46;15.10;99.90
20957;DHT22;10637;47.970;7.830;2023-05-10T18:39:49;14.90;99.90
20957;DHT22;10637;47.970;7.830;2023-05-10T18:44:51;14.70;99.90
20957;DHT22;10637;47.970;7.830;2023-05-10T18:49:53;14.60;99.90
20957;DHT22;10637;47.970;7.830;2023-05-10T18:54:55;14.50;99.90
20957;DHT22;10637;47.970;7.830;2023-05-10T18:59:57;14.30;99.90
20957;DHT22;10637;47.970;7.830;2023-05-10T19:04:59;14.10;99.90
20957;DHT22;10637;47.970;7.830;2023-05-10T19:10:01;14.10;99.90
20957;DHT22;10637;47.970;7.830;2023-05-10T19:15:04;14.00;99.90
20957;DHT22;10637;47.970;7.830;2023-05-10T19:20:06;13.90;99.90
20957;DHT22;10637;47.970;7.830;2023-05-10T19:25:09;13.80;99.90
20957;DHT22;10637;47.970;7.830;2023-05-10T19:30:12;13.80;99.90
20957;DHT22;10637;47.970;7.830;2023-05-10T19:35:13;13.70;99.90
20957;DHT22;10637;47.970;7.830;2023-05-10T19:40:16;13.70;99.90
20957;DHT22;10637;47.970;7.830;2023-05-10T19:45:19;13.70;99.90
20957;DHT22;10637;47.970;7.830;2023-05-10T19:50:21;13.70;99.90
20957;DHT22;10637;47.970;7.830;2023-05-10T19:55:28;13.80;99.90
20957;DHT22;10637;47.970;7.830;2023-05-10T20:00:30;13.80;99.90
20957;DHT22;10637;47.970;7.830;2023-05-10T20:05:32;13.80;99.90
20957;DHT22;10637;47.970;7.830;2023-05-10T20:10:34;13.70;99.90
20957;DHT22;10637;47.970;7.830;2023-05-10T20:15:35;13.70;99.90
20957;DHT22;10637;47.970;7.830;2023-05-10T20:20:37;13.70;99.90
20957;DHT22;10637;47.970;7.830;2023-05-10T20:25:40;13.60;99.90
20957;DHT22;10637;47.970;7.830;2023-05-10T20:30:42;13.60;99.90
20957;DHT22;10637;47.970;7.830;2023-05-10T20:35:43;13.60;99.90
20957;DHT22;10637;47.970;7.830;2023-05-10T20:40:45;13.50;99.90
20957;DHT22;10637;47.970;7.830;2023-05-10T20:45:47;13.50;99.90
20957;DHT22;10637;47.970;7.830;2023-05-10T20:50:49;13.50;99.90
20957;DHT22;10637;47.970;7.830;2023-05-10T20:55:52;13.50;99.90
20957;DHT22;10637;47.970;7.830;2023-05-10T21:00:54;13.30;99.90
20957;DHT22;10637;47.970;7.830;2023-05-10T21:05:55;13.40;99.90
20957;DHT22;10637;47.970;7.830;2023-05-10T21:10:58;13.30;99.90
20957;DHT22;10637;47.970;7.830;2023-05-10T21:16:02;13.20;99.90
20957;DHT22;10637;47.970;7.830;2023-05-10T21:21:04;13.10;99.90
20957;DHT22;10637;47.970;7.830;2023-05-10T21:26:06;13.10;99.90
20957;DHT22;10637;47.970;7.830;2023-05-10T21:31:08;13.00;99.90
20957;DHT22;10637;47.970;7.830;2023-05-10T21:36:09;13.00;99.90
20957;DHT22;10637;47.970;7.830;2023-05-10T21:41:11;12.90;99.90
20957;DHT22;10637;47.970;7.830;2023-05-10T21:46:13;12.90;99.90
20957;DHT22;10637;47.970;7.830;2023-05-10T21:51:15;12.70;99.90
20957;DHT22;10637;47.970;7.830;2023-05-10T21:56:17;12.70;99.90
20957;DHT22;10637;47.970;7.830;2023-05-10T22:01:19;12.70;99.90
20957;DHT22;10637;47.970;7.830;2023-05-10T22:06:21;12.70;99.90
20957;DHT22;10637;47.970;7.830;2023-05-10T22:11:22;12.50;99.90
20957;DHT22;10637;47.970;7.830;2023-05-10T22:16:24;12.40;99.90
20957;DHT22;10637;47.970;7.830;2023-05-10T22:21:26;12.30;99.90
20957;DHT22;10637;47.970;7.830;2023-05-10T22:26:28;12.10;99.90
20957;DHT22;10637;47.970;7.830;2023-05-10T22:31:29;12.10;99.90
20957;DHT22;10637;47.970;7.830;2023-05-10T22:36:32;12.10;99.90
20957;DHT22;10637;47.970;7.830;2023-05-10T22:41:33;12.10;99.90
20957;DHT22;10637;47.970;7.830;2023-05-10T22:46:35;12.10;99.90
20957;DHT22;10637;47.970;7.830;2023-05-10T22:51:38;12.10;99.90
20957;DHT22;10637;47.970;7.830;2023-05-10T22:56:39;12.20;99.90
20957;DHT22;10637;47.970;7.830;2023-05-10T23:01:41;12.20;99.90
20957;DHT22;10637;47.970;7.830;2023-05-10T23:06:43;12.20;99.90
20957;DHT22;10637;47.970;7.830;2023-05-10T23:11:46;12.20;99.90
20957;DHT22;10637;47.970;7.830;2023-05-10T23:16:48;12.10;99.90
20957;DHT22;10637;47.970;7.830;2023-05-10T23:21:49;12.20;99.90
20957;DHT22;10637;47.970;7.830;2023-05-10T23:26:51;12.20;99.90
20957;DHT22;10637;47.970;7.830;2023-05-10T23:31:53;12.20;99.90
20957;DHT22;10637;47.970;7.830;2023-05-10T23:36:55;12.20;99.90
20957;DHT22;10637;47.970;7.830;2023-05-10T23:41:56;12.10;99.90
20957;DHT22;10637;47.970;7.830;2023-05-10T23:46:58;12.00;99.90
20957;DHT22;10637;47.970;7.830;2023-05-10T23:52:00;12.10;99.90
20957;DHT22;10637;47.970;7.830;2023-05-10T23:57:01;12.10;99.90
